createdAt,value
2023-05-22T00:00:40.974Z,173.68
2023-05-22T00:01:40.715Z,173.21
2023-05-22T00:02:40.739Z,174.97
2023-05-22T00:03:40.681Z,177.65
2023-05-22T00:04:40.819Z,177.42
2023-05-22T00:05:40.737Z,177.70
2023-05-22T00:06:40.688Z,178.28
2023-05-22T00:07:40.699Z,178.89
2023-05-22T00:08:40.660Z,180.71
2023-05-22T00:09:40.640Z,184.73
2023-05-22T00:10:40.807Z,184.30
2023-05-22T00:11:40.630Z,184.26
2023-05-22T00:12:40.676Z,185.27
2023-05-22T00:13:40.615Z,186.28
2023-05-22T00:14:40.632Z,186.19
2023-05-22T00:15:40.670Z,184.68
2023-05-22T00:16:40.624Z,185.60
2023-05-22T00:17:40.622Z,186.10
2023-05-22T00:18:40.577Z,186.42
2023-05-22T00:19:40.581Z,186.20
2023-05-22T00:20:40.783Z,186.96
2023-05-22T00:21:40.592Z,187.59
2023-05-22T00:22:40.619Z,187.97
2023-05-22T00:23:40.638Z,187.88
2023-05-22T00:24:40.649Z,187.87
2023-05-22T00:25:40.689Z,189.94
2023-05-22T00:26:40.707Z,190.82
2023-05-22T00:27:40.732Z,191.18
2023-05-22T00:28:40.739Z,192.93
2023-05-22T00:29:40.772Z,194.91
2023-05-22T00:30:41.002Z,194.61
2023-05-22T00:31:40.851Z,195.11
2023-05-22T00:32:40.868Z,195.21
2023-05-22T00:33:40.861Z,198.06
2023-05-22T00:34:40.934Z,196.14
2023-05-22T00:35:40.931Z,192.89
2023-05-22T00:36:40.954Z,195.60
2023-05-22T00:37:40.988Z,195.59
2023-05-22T00:38:41.002Z,195.06
2023-05-22T00:39:41.024Z,197.90
2023-05-22T00:40:41.243Z,197.84
2023-05-22T00:41:41.105Z,197.67
2023-05-22T00:42:41.121Z,194.33
2023-05-22T00:43:41.130Z,193.55
2023-05-22T00:44:41.161Z,192.49
2023-05-22T00:45:41.192Z,193.57
2023-05-22T00:46:41.247Z,194.86
2023-05-22T00:47:41.331Z,194.35
2023-05-22T00:48:41.283Z,195.35
2023-05-22T00:49:41.320Z,193.29
2023-05-22T00:50:41.493Z,192.33
2023-05-22T00:51:41.358Z,193.71
2023-05-22T00:52:41.401Z,194.77
2023-05-22T00:53:41.415Z,192.66
2023-05-22T00:54:41.459Z,192.26
2023-05-22T00:55:41.492Z,190.22
2023-05-22T00:56:41.523Z,191.14
2023-05-22T00:57:41.556Z,192.30
2023-05-22T00:58:41.573Z,191.84
2023-05-22T00:59:41.609Z,192.34
2023-05-22T01:00:41.751Z,195.00
2023-05-22T01:01:41.695Z,197.11
2023-05-22T01:02:41.752Z,199.62
2023-05-22T01:03:41.833Z,202.18
2023-05-22T01:04:41.761Z,201.56
2023-05-22T01:05:41.796Z,201.32
2023-05-22T01:06:41.830Z,201.21
2023-05-22T01:07:41.860Z,200.45
2023-05-22T01:08:41.887Z,201.25
2023-05-22T01:09:41.897Z,199.75
2023-05-22T01:10:42.223Z,201.71
2023-05-22T01:11:41.992Z,200.88
2023-05-22T01:12:42.018Z,201.09
2023-05-22T01:13:42.065Z,201.87
2023-05-22T01:14:42.086Z,203.67
2023-05-22T01:15:42.106Z,205.32
2023-05-22T01:16:42.210Z,205.75
2023-05-22T01:17:42.237Z,206.32
2023-05-22T01:18:42.230Z,208.02
2023-05-22T01:19:42.275Z,211.29
2023-05-22T01:20:42.294Z,211.93
2023-05-22T01:21:42.319Z,211.92
2023-05-22T01:22:42.393Z,212.81
2023-05-22T01:23:42.393Z,214.32
2023-05-22T01:24:42.538Z,216.33
2023-05-22T01:25:42.465Z,217.95
2023-05-22T01:26:42.529Z,220.84
2023-05-22T01:27:42.597Z,222.48
2023-05-22T01:28:42.622Z,221.12
2023-05-22T01:29:42.615Z,222.20
2023-05-22T01:30:42.658Z,222.87
2023-05-22T01:31:42.671Z,225.67
2023-05-22T01:32:42.753Z,227.69
2023-05-22T01:33:42.818Z,229.96
2023-05-22T01:34:42.811Z,229.39
2023-05-22T01:35:42.825Z,230.00
2023-05-22T01:36:42.868Z,229.53
2023-05-22T01:37:42.894Z,227.36
2023-05-22T01:38:42.955Z,229.16
2023-05-22T01:39:42.977Z,230.74
2023-05-22T01:40:43.017Z,231.49
2023-05-22T01:41:43.056Z,229.66
2023-05-22T01:42:43.073Z,231.57
2023-05-22T01:43:43.118Z,235.76
2023-05-22T01:44:43.130Z,234.39
2023-05-22T01:45:43.330Z,236.78
2023-05-22T01:46:43.203Z,236.43
2023-05-22T01:47:43.306Z,237.97
2023-05-22T01:48:43.324Z,236.65
2023-05-22T01:49:43.347Z,239.03
2023-05-22T01:50:43.339Z,238.75
2023-05-22T01:51:43.395Z,238.25
2023-05-22T01:52:43.430Z,238.27
2023-05-22T01:53:43.482Z,238.37
2023-05-22T01:54:43.501Z,237.78
2023-05-22T01:55:43.527Z,236.45
2023-05-22T01:56:43.552Z,236.03
2023-05-22T01:57:43.596Z,235.40
2023-05-22T01:58:43.630Z,234.45
2023-05-22T01:59:43.657Z,234.31
2023-05-22T02:00:43.703Z,232.91
2023-05-22T02:01:43.898Z,232.94
2023-05-22T02:02:43.827Z,230.65
2023-05-22T02:03:43.830Z,229.82
2023-05-22T02:04:43.844Z,230.27
2023-05-22T02:05:43.853Z,230.79
2023-05-22T02:06:43.891Z,229.40
2023-05-22T02:07:43.950Z,228.68
2023-05-22T02:08:43.966Z,229.31
2023-05-22T02:09:44.025Z,228.67
2023-05-22T02:10:44.034Z,226.84
2023-05-22T02:11:44.049Z,224.67
2023-05-22T02:12:44.122Z,225.37
2023-05-22T02:13:44.141Z,224.51
2023-05-22T02:14:44.187Z,225.86
2023-05-22T02:15:44.269Z,228.26
2023-05-22T02:16:44.260Z,228.56
2023-05-22T02:17:44.366Z,228.44
2023-05-22T02:18:44.520Z,228.92
2023-05-22T02:19:44.333Z,229.26
2023-05-22T02:20:44.389Z,227.55
2023-05-22T02:21:44.390Z,229.77
2023-05-22T02:22:44.565Z,232.50
2023-05-22T02:23:44.507Z,233.07
2023-05-22T02:24:44.544Z,232.79
2023-05-22T02:25:44.539Z,234.78
2023-05-22T02:26:44.612Z,234.76
2023-05-22T02:27:44.655Z,234.75
2023-05-22T02:28:44.720Z,234.93
2023-05-22T02:29:44.736Z,233.40
2023-05-22T02:30:44.786Z,233.02
2023-05-22T02:31:45.805Z,234.41
2023-05-22T02:32:44.923Z,234.08
2023-05-22T02:33:44.863Z,233.32
2023-05-22T02:34:44.937Z,233.79
2023-05-22T02:35:44.968Z,236.97
2023-05-22T02:36:45.003Z,239.72
2023-05-22T02:37:45.047Z,239.91
2023-05-22T02:38:45.074Z,241.74
2023-05-22T02:39:45.111Z,245.38
2023-05-22T02:40:45.179Z,247.72
2023-05-22T02:41:45.229Z,244.53
2023-05-22T02:42:45.258Z,246.00
2023-05-22T02:43:45.285Z,248.98
2023-05-22T02:44:45.328Z,250.00
2023-05-22T02:45:45.339Z,250.00
2023-05-22T02:46:45.417Z,248.66
2023-05-22T02:47:45.481Z,250.00
2023-05-22T02:48:45.494Z,249.89
2023-05-22T02:49:45.491Z,248.41
2023-05-22T02:50:45.545Z,249.52
2023-05-22T02:51:45.575Z,249.96
2023-05-22T02:52:45.609Z,248.57
2023-05-22T02:53:45.641Z,250.00
2023-05-22T02:54:45.687Z,247.96
2023-05-22T02:55:45.709Z,248.29
2023-05-22T02:56:45.771Z,248.85
2023-05-22T02:57:45.811Z,248.78
2023-05-22T02:58:45.835Z,249.41
2023-05-22T02:59:45.873Z,248.90
2023-05-22T03:00:45.919Z,249.65
2023-05-22T03:01:45.991Z,249.52
2023-05-22T03:02:46.042Z,249.61
2023-05-22T03:03:46.047Z,250.00
2023-05-22T03:04:46.086Z,249.33
2023-05-22T03:05:46.110Z,249.20
2023-05-22T03:06:46.206Z,248.30
2023-05-22T03:07:48.353Z,249.05
2023-05-22T03:08:46.178Z,246.96
2023-05-22T03:09:46.175Z,247.70
2023-05-22T03:10:46.172Z,251.15
2023-05-22T03:11:46.179Z,248.65
2023-05-22T03:12:46.146Z,249.92
2023-05-22T03:13:46.142Z,247.55
2023-05-22T03:14:46.127Z,246.18
2023-05-22T03:15:46.138Z,249.51
2023-05-22T03:16:46.212Z,246.53
2023-05-22T03:17:46.194Z,248.60
2023-05-22T03:18:46.146Z,246.13
2023-05-22T03:19:46.099Z,244.51
2023-05-22T03:20:46.093Z,240.41
2023-05-22T03:21:46.073Z,236.68
2023-05-22T03:22:46.090Z,234.82
2023-05-22T03:23:46.064Z,233.26
2023-05-22T03:24:46.065Z,236.58
2023-05-22T03:25:46.049Z,234.53
2023-05-22T03:26:46.053Z,234.57
2023-05-22T03:27:46.059Z,233.48
2023-05-22T03:28:46.045Z,232.23
2023-05-22T03:29:46.018Z,235.51
2023-05-22T03:30:46.016Z,233.03
2023-05-22T03:31:46.022Z,235.47
2023-05-22T03:32:46.040Z,236.70
2023-05-22T03:33:46.009Z,238.86
2023-05-22T03:34:45.989Z,240.81
2023-05-22T03:35:45.996Z,240.37
2023-05-22T03:36:46.064Z,243.08
2023-05-22T03:37:46.178Z,242.23
2023-05-22T03:38:45.983Z,245.05
2023-05-22T03:39:45.977Z,246.47
2023-05-22T03:40:45.949Z,245.54
2023-05-22T03:41:45.953Z,250.00
2023-05-22T03:42:45.954Z,247.92
2023-05-22T03:43:45.979Z,250.00
2023-05-22T03:44:45.933Z,248.23
2023-05-22T03:45:45.919Z,249.15
2023-05-22T03:46:45.921Z,249.96
2023-05-22T03:47:45.968Z,248.11
2023-05-22T03:48:45.907Z,248.16
2023-05-22T03:49:45.915Z,248.20
2023-05-22T03:50:45.905Z,248.24
2023-05-22T03:51:45.881Z,249.72
2023-05-22T03:52:45.855Z,250.00
2023-05-22T03:53:45.870Z,249.76
2023-05-22T03:54:45.853Z,249.55
2023-05-22T03:55:45.825Z,250.00
2023-05-22T03:56:45.849Z,248.96
2023-05-22T03:57:45.876Z,250.00
2023-05-22T03:58:45.945Z,249.58
2023-05-22T03:59:45.969Z,248.12
2023-05-22T04:00:46.036Z,248.91
2023-05-22T04:01:46.091Z,248.89
2023-05-22T04:02:46.146Z,248.59
2023-05-22T04:03:46.169Z,248.12
2023-05-22T04:04:46.298Z,249.77
2023-05-22T04:05:46.230Z,249.49
2023-05-22T04:06:46.274Z,249.09
2023-05-22T04:07:46.319Z,246.94
2023-05-22T04:08:46.385Z,250.00
2023-05-22T04:09:46.419Z,247.82
2023-05-22T04:10:46.535Z,246.37
2023-05-22T04:11:46.510Z,243.54
2023-05-22T04:12:46.558Z,242.50
2023-05-22T04:13:46.598Z,242.38
2023-05-22T04:14:46.635Z,238.67
2023-05-22T04:15:46.858Z,237.81
2023-05-22T04:16:47.540Z,240.76
2023-05-22T04:17:46.835Z,239.95
2023-05-22T04:18:46.881Z,241.87
2023-05-22T04:19:46.865Z,242.09
2023-05-22T04:20:46.929Z,239.89
2023-05-22T04:21:46.978Z,238.34
2023-05-22T04:22:47.019Z,239.96
2023-05-22T04:23:47.100Z,239.35
2023-05-22T04:24:47.103Z,239.07
2023-05-22T04:25:47.159Z,241.01
2023-05-22T04:26:47.172Z,241.40
2023-05-22T04:27:47.236Z,242.53
2023-05-22T04:28:47.303Z,239.95
2023-05-22T04:29:47.303Z,240.92
2023-05-22T04:30:47.431Z,242.07
2023-05-22T04:31:47.393Z,241.57
2023-05-22T04:32:47.488Z,238.65
2023-05-22T04:33:47.468Z,235.04
2023-05-22T04:34:47.518Z,233.50
2023-05-22T04:35:47.553Z,234.46
2023-05-22T04:36:47.607Z,229.34
2023-05-22T04:37:47.693Z,227.85
2023-05-22T04:38:47.707Z,227.28
2023-05-22T04:39:47.731Z,226.66
2023-05-22T04:40:47.785Z,228.48
2023-05-22T04:41:47.788Z,227.35
2023-05-22T04:42:47.830Z,228.42
2023-05-22T04:43:47.914Z,230.68
2023-05-22T04:44:47.941Z,233.14
2023-05-22T04:45:47.978Z,235.66
2023-05-22T04:46:48.030Z,236.45
2023-05-22T04:47:48.044Z,236.45
2023-05-22T04:48:48.065Z,235.42
2023-05-22T04:49:48.079Z,236.32
2023-05-22T04:50:48.189Z,236.80
2023-05-22T04:51:48.148Z,237.62
2023-05-22T04:52:48.149Z,238.69
2023-05-22T04:53:48.192Z,239.65
2023-05-22T04:54:48.207Z,238.99
2023-05-22T04:55:48.223Z,241.95
2023-05-22T04:56:48.263Z,244.91
2023-05-22T04:57:48.315Z,248.23
2023-05-22T04:58:48.290Z,249.88
2023-05-22T04:59:48.306Z,250.00
2023-05-22T05:00:48.377Z,247.53
2023-05-22T05:01:48.395Z,249.09
2023-05-22T05:02:48.435Z,250.00
2023-05-22T05:03:48.444Z,248.49
2023-05-22T05:04:48.398Z,249.13
2023-05-22T05:05:48.428Z,250.00
2023-05-22T05:06:48.416Z,250.00
2023-05-22T05:07:49.932Z,249.84
2023-05-22T05:08:48.413Z,250.00
2023-05-22T05:09:48.446Z,249.06
2023-05-22T05:10:48.418Z,249.95
2023-05-22T05:11:48.431Z,250.00
2023-05-22T05:12:48.450Z,250.00
2023-05-22T05:13:48.512Z,250.00
2023-05-22T05:14:48.617Z,250.00
2023-05-22T05:15:48.621Z,246.85
2023-05-22T05:16:48.676Z,245.87
2023-05-22T05:17:48.694Z,244.16
2023-05-22T05:18:48.648Z,241.51
2023-05-22T05:19:48.608Z,243.68
2023-05-22T05:20:48.700Z,246.89
2023-05-22T05:21:48.764Z,250.00
2023-05-22T05:22:48.893Z,249.76
2023-05-22T05:23:48.867Z,249.93
2023-05-22T05:24:48.902Z,249.39
2023-05-22T05:25:48.906Z,249.89
2023-05-22T05:26:48.920Z,247.69
2023-05-22T05:27:48.938Z,247.90
2023-05-22T05:28:48.937Z,249.81
2023-05-22T05:29:49.066Z,250.00
2023-05-22T05:30:49.000Z,250.00
2023-05-22T05:31:49.072Z,250.00
2023-05-22T05:32:49.043Z,250.00
2023-05-22T05:33:49.058Z,249.48
2023-05-22T05:34:49.039Z,249.72
2023-05-22T05:35:49.030Z,250.00
2023-05-22T05:36:49.036Z,249.81
2023-05-22T05:37:49.199Z,250.00
2023-05-22T05:38:49.048Z,250.00
2023-05-22T05:39:49.067Z,250.00
2023-05-22T05:40:49.056Z,249.94
2023-05-22T05:41:49.057Z,249.54
2023-05-22T05:42:49.063Z,249.52
2023-05-22T05:43:49.105Z,249.62
2023-05-22T05:44:49.259Z,247.82
2023-05-22T05:45:49.265Z,249.03
2023-05-22T05:46:49.226Z,249.05
2023-05-22T05:47:49.320Z,250.00
2023-05-22T05:48:49.230Z,250.00
2023-05-22T05:49:49.285Z,248.04
2023-05-22T05:50:49.263Z,249.63
2023-05-22T05:51:49.258Z,248.83
2023-05-22T05:52:49.318Z,247.67
2023-05-22T05:53:49.320Z,247.05
2023-05-22T05:54:49.373Z,244.22
2023-05-22T05:55:49.478Z,245.41
2023-05-22T05:56:49.487Z,246.34
2023-05-22T05:57:49.544Z,244.74
2023-05-22T05:58:49.621Z,244.27
2023-05-22T05:59:49.694Z,244.67
2023-05-22T06:00:49.743Z,247.35
2023-05-22T06:01:49.789Z,246.16
2023-05-22T06:02:50.745Z,246.49
2023-05-22T06:03:49.917Z,247.79
2023-05-22T06:04:49.913Z,248.79
2023-05-22T06:05:50.096Z,249.67
2023-05-22T06:06:49.994Z,249.02
2023-05-22T06:07:50.040Z,247.89
2023-05-22T06:08:50.088Z,247.46
2023-05-22T06:09:50.132Z,249.02
2023-05-22T06:10:50.169Z,246.23
2023-05-22T06:11:50.238Z,243.29
2023-05-22T06:12:50.269Z,244.32
2023-05-22T06:13:50.330Z,246.86
2023-05-22T06:14:50.347Z,245.13
2023-05-22T06:15:50.442Z,247.03
2023-05-22T06:16:50.497Z,246.95
2023-05-22T06:17:50.797Z,245.78
2023-05-22T06:18:50.478Z,244.03
2023-05-22T06:19:50.480Z,246.08
2023-05-22T06:20:50.556Z,244.82
2023-05-22T06:21:52.119Z,239.78
2023-05-22T06:22:50.579Z,240.28
2023-05-22T06:23:50.605Z,244.13
2023-05-22T06:24:50.674Z,241.48
2023-05-22T06:25:50.677Z,240.52
2023-05-22T06:26:50.759Z,238.52
2023-05-22T06:27:50.725Z,235.00
2023-05-22T06:28:50.769Z,232.58
2023-05-22T06:29:50.751Z,236.06
2023-05-22T06:30:50.793Z,235.06
2023-05-22T06:31:51.246Z,230.27
2023-05-22T06:32:51.008Z,227.42
2023-05-22T06:33:51.130Z,227.08
2023-05-22T06:34:50.915Z,230.12
2023-05-22T06:35:50.908Z,231.15
2023-05-22T06:36:51.225Z,231.62
2023-05-22T06:37:50.963Z,233.13
2023-05-22T06:38:51.035Z,236.38
2023-05-22T06:39:51.002Z,238.30
2023-05-22T06:40:51.024Z,241.78
2023-05-22T06:41:51.051Z,244.10
2023-05-22T06:42:51.723Z,245.31
2023-05-22T06:43:51.094Z,246.42
2023-05-22T06:44:51.096Z,246.11
2023-05-22T06:45:51.196Z,246.28
2023-05-22T06:46:51.244Z,246.41
2023-05-22T06:47:51.273Z,247.35
2023-05-22T06:48:51.167Z,247.81
2023-05-22T06:49:51.175Z,246.56
2023-05-22T06:50:51.193Z,248.07
2023-05-22T06:51:51.244Z,248.73
2023-05-22T06:52:51.237Z,249.25
2023-05-22T06:53:51.254Z,247.92
2023-05-22T06:54:51.313Z,248.50
2023-05-22T06:55:51.271Z,246.29
2023-05-22T06:56:51.292Z,247.50
2023-05-22T06:57:51.333Z,245.95
2023-05-22T06:58:51.317Z,243.90
2023-05-22T06:59:51.318Z,242.35
2023-05-22T07:00:51.408Z,239.85
2023-05-22T07:01:51.385Z,236.89
2023-05-22T07:02:51.422Z,235.18
2023-05-22T07:03:51.336Z,234.49
2023-05-22T07:04:51.467Z,231.24
2023-05-22T07:05:51.466Z,232.75
2023-05-22T07:06:51.331Z,232.34
2023-05-22T07:07:51.342Z,233.88
2023-05-22T07:08:51.351Z,234.96
2023-05-22T07:09:51.335Z,235.00
2023-05-22T07:10:51.332Z,234.99
2023-05-22T07:11:51.359Z,236.63
2023-05-22T07:12:51.331Z,235.37
2023-05-22T07:13:51.348Z,234.65
2023-05-22T07:14:51.375Z,235.04
2023-05-22T07:15:51.364Z,237.11
2023-05-22T07:16:51.534Z,238.56
2023-05-22T07:17:51.427Z,239.54
2023-05-22T07:18:51.413Z,238.65
2023-05-22T07:19:51.410Z,238.62
2023-05-22T07:20:51.425Z,241.51
2023-05-22T07:21:51.449Z,241.05
2023-05-22T07:22:51.491Z,243.12
2023-05-22T07:23:51.498Z,244.08
2023-05-22T07:24:51.519Z,245.56
2023-05-22T07:25:51.523Z,246.70
2023-05-22T07:26:51.543Z,239.81
2023-05-22T07:27:51.738Z,232.76
2023-05-22T07:28:51.555Z,239.24
2023-05-22T07:29:51.539Z,247.22
2023-05-22T07:30:51.560Z,243.34
2023-05-22T07:31:51.619Z,242.00
2023-05-22T07:32:51.827Z,241.47
2023-05-22T07:33:51.614Z,240.22
2023-05-22T07:34:51.679Z,239.74
2023-05-22T07:35:51.708Z,239.37
2023-05-22T07:36:51.785Z,239.16
2023-05-22T07:37:52.328Z,240.37
2023-05-22T07:38:51.837Z,242.10
2023-05-22T07:39:52.761Z,242.61
2023-05-22T07:40:51.918Z,245.07
2023-05-22T07:41:53.305Z,246.04
2023-05-22T07:42:52.110Z,244.97
2023-05-22T07:43:52.135Z,243.91
2023-05-22T07:44:52.216Z,245.53
2023-05-22T07:45:52.309Z,244.62
2023-05-22T07:46:52.306Z,244.76
2023-05-22T07:47:54.056Z,245.10
2023-05-22T07:48:52.351Z,243.65
2023-05-22T07:49:52.353Z,242.11
2023-05-22T07:50:52.350Z,244.19
2023-05-22T07:51:52.324Z,242.90
2023-05-22T07:52:52.320Z,243.15
2023-05-22T07:53:52.693Z,241.49
2023-05-22T07:54:52.325Z,241.69
2023-05-22T07:55:52.318Z,242.42
2023-05-22T07:56:52.304Z,241.89
2023-05-22T07:57:52.299Z,241.95
2023-05-22T07:58:52.291Z,243.01
2023-05-22T07:59:52.790Z,246.35
2023-05-22T08:00:52.269Z,243.53
2023-05-22T08:01:52.255Z,244.43
2023-05-22T08:02:53.014Z,244.57
2023-05-22T08:03:53.414Z,243.85
2023-05-22T08:04:52.277Z,246.43
2023-05-22T08:05:52.264Z,245.51
2023-05-22T08:06:52.349Z,246.31
2023-05-22T08:07:52.245Z,247.25
2023-05-22T08:08:52.227Z,247.18
2023-05-22T08:09:52.308Z,248.20
2023-05-22T08:11:03.033Z,246.97
2023-05-22T08:11:53.204Z,247.02
2023-05-22T08:12:52.238Z,247.05
2023-05-22T08:13:52.172Z,247.07
2023-05-22T08:14:52.191Z,247.08
2023-05-22T08:15:52.174Z,246.04
2023-05-22T08:16:53.185Z,246.99
2023-05-22T08:17:52.299Z,245.78
2023-05-22T08:18:52.202Z,246.08
2023-05-22T08:19:52.232Z,245.75
2023-05-22T08:20:53.164Z,244.99
2023-05-22T08:21:52.120Z,240.07
2023-05-22T08:22:52.264Z,230.89
2023-05-22T08:23:52.146Z,228.26
2023-05-22T08:24:52.137Z,229.31
2023-05-22T08:25:52.300Z,226.93
2023-05-22T08:26:52.237Z,227.42
2023-05-22T08:27:52.318Z,227.78
2023-05-22T08:28:52.355Z,228.18
2023-05-22T08:29:52.423Z,228.55
2023-05-22T08:30:52.433Z,229.98
2023-05-22T08:31:52.572Z,231.75
2023-05-22T08:32:52.611Z,230.02
2023-05-22T08:33:52.744Z,232.04
2023-05-22T08:34:52.681Z,232.88
2023-05-22T08:35:52.725Z,231.86
2023-05-22T08:36:52.783Z,225.76
2023-05-22T08:37:52.837Z,205.42
2023-05-22T08:38:53.275Z,206.64
2023-05-22T08:39:52.966Z,208.13
2023-05-22T08:40:52.992Z,208.40
2023-05-22T08:41:53.068Z,207.19
2023-05-22T08:42:53.121Z,212.76
2023-05-22T08:43:53.306Z,207.16
2023-05-22T08:44:53.184Z,209.38
2023-05-22T08:45:53.211Z,209.33
2023-05-22T08:46:53.236Z,204.81
2023-05-22T08:47:53.331Z,190.08
2023-05-22T08:48:53.771Z,168.51
2023-05-22T08:49:53.383Z,153.93
2023-05-22T08:50:53.363Z,145.77
2023-05-22T08:51:53.396Z,142.28
2023-05-22T08:52:53.754Z,144.67
2023-05-22T08:53:53.398Z,146.93
2023-05-22T08:54:53.428Z,136.40
2023-05-22T08:55:53.452Z,134.74
2023-05-22T08:56:57.162Z,147.98
2023-05-22T08:57:53.461Z,134.40
2023-05-22T08:58:53.785Z,120.72
2023-05-22T08:59:53.448Z,111.82
2023-05-22T09:00:53.507Z,114.53
2023-05-22T09:01:53.418Z,118.78
2023-05-22T09:02:53.458Z,125.50
2023-05-22T09:03:53.410Z,129.08
2023-05-22T09:04:53.464Z,112.43
2023-05-22T09:05:53.405Z,110.52
2023-05-22T09:06:53.401Z,112.99
2023-05-22T09:07:53.386Z,117.33
2023-05-22T09:08:53.370Z,110.49
2023-05-22T09:09:53.359Z,108.07
2023-05-22T09:10:53.360Z,101.23
2023-05-22T09:11:53.358Z,107.75
2023-05-22T09:12:53.792Z,103.06
2023-05-22T09:13:53.359Z,97.58
2023-05-22T09:14:54.600Z,95.73
2023-05-22T09:15:53.321Z,94.47
2023-05-22T09:16:53.337Z,104.97
2023-05-22T09:17:53.840Z,108.25
2023-05-22T09:18:53.332Z,108.81
2023-05-22T09:19:53.291Z,106.33
2023-05-22T09:20:53.269Z,120.94
2023-05-22T09:21:53.283Z,131.62
2023-05-22T09:22:53.320Z,134.81
2023-05-22T09:23:53.246Z,134.42
2023-05-22T09:24:53.277Z,133.93
2023-05-22T09:25:53.261Z,134.96
2023-05-22T09:26:53.225Z,134.63
2023-05-22T09:27:53.298Z,115.16
2023-05-22T09:28:53.279Z,99.13
2023-05-22T09:29:53.306Z,97.65
2023-05-22T09:30:53.225Z,89.76
2023-05-22T09:31:53.284Z,70.21
2023-05-22T09:32:53.336Z,80.37
2023-05-22T09:33:53.305Z,91.70
2023-05-22T09:34:53.188Z,106.43
2023-05-22T09:35:53.173Z,117.30
2023-05-22T09:36:53.160Z,126.61
2023-05-22T09:37:53.213Z,128.00
2023-05-22T09:38:53.285Z,132.41
2023-05-22T09:39:53.278Z,141.04
2023-05-22T09:40:53.328Z,149.39
2023-05-22T09:41:53.407Z,154.89
2023-05-22T09:42:53.396Z,162.15
2023-05-22T09:43:53.425Z,166.40
2023-05-22T09:44:53.486Z,171.10
2023-05-22T09:45:53.578Z,173.97
2023-05-22T09:46:53.631Z,180.15
2023-05-22T09:47:53.656Z,187.89
2023-05-22T09:48:53.814Z,187.10
2023-05-22T09:49:53.699Z,197.94
2023-05-22T09:50:53.744Z,212.11
2023-05-22T09:51:53.774Z,217.36
2023-05-22T09:52:53.845Z,209.32
2023-05-22T09:53:53.869Z,198.01
2023-05-22T09:54:53.914Z,190.97
2023-05-22T09:55:53.965Z,189.64
2023-05-22T09:56:54.001Z,185.77
2023-05-22T09:57:54.020Z,181.52
2023-05-22T09:58:54.072Z,180.94
2023-05-22T09:59:54.130Z,180.18
2023-05-22T10:00:54.138Z,190.24
2023-05-22T10:01:54.359Z,193.76
2023-05-22T10:02:54.306Z,172.65
2023-05-22T10:03:54.387Z,169.25
2023-05-22T10:04:54.344Z,164.67
2023-05-22T10:05:54.379Z,161.62
2023-05-22T10:06:54.389Z,163.15
2023-05-22T10:07:54.411Z,167.41
2023-05-22T10:08:54.435Z,170.44
2023-05-22T10:09:54.464Z,169.16
2023-05-22T10:10:54.504Z,165.80
2023-05-22T10:11:54.529Z,164.48
2023-05-22T10:12:54.554Z,165.18
2023-05-22T10:13:54.641Z,163.37
2023-05-22T10:14:54.610Z,156.65
2023-05-22T10:15:54.654Z,165.56
2023-05-22T10:16:54.676Z,173.41
2023-05-22T10:17:54.779Z,179.15
2023-05-22T10:18:54.777Z,181.93
2023-05-22T10:19:54.819Z,182.03
2023-05-22T10:20:54.759Z,176.83
2023-05-22T10:21:54.808Z,170.97
2023-05-22T10:22:55.849Z,172.31
2023-05-22T10:23:54.846Z,181.42
2023-05-22T10:24:54.882Z,179.99
2023-05-22T10:25:54.896Z,180.62
2023-05-22T10:26:54.943Z,188.14
2023-05-22T10:27:54.954Z,197.78
2023-05-22T10:28:55.712Z,203.65
2023-05-22T10:29:55.309Z,209.75
2023-05-22T10:30:54.987Z,210.86
2023-05-22T10:31:55.098Z,212.83
2023-05-22T10:32:55.404Z,208.40
2023-05-22T10:33:55.225Z,206.35
2023-05-22T10:34:55.055Z,206.39
2023-05-22T10:35:55.056Z,205.13
2023-05-22T10:36:58.176Z,204.87
2023-05-22T10:37:56.086Z,204.99
2023-05-22T10:38:55.056Z,205.03
2023-05-22T10:39:55.054Z,202.03
2023-05-22T10:40:55.028Z,202.24
2023-05-22T10:41:55.063Z,204.52
2023-05-22T10:42:55.040Z,201.45
2023-05-22T10:43:55.028Z,199.98
2023-05-22T10:44:55.037Z,199.84
2023-05-22T10:45:55.042Z,199.52
2023-05-22T10:46:55.007Z,199.70
2023-05-22T10:47:55.044Z,199.71
2023-05-22T10:48:55.002Z,200.41
2023-05-22T10:49:55.089Z,201.70
2023-05-22T10:50:55.010Z,202.01
2023-05-22T10:51:54.972Z,202.25
2023-05-22T10:52:54.983Z,203.01
2023-05-22T10:53:55.035Z,203.57
2023-05-22T10:54:54.973Z,204.47
2023-05-22T10:55:54.931Z,203.96
2023-05-22T10:56:54.927Z,204.30
2023-05-22T10:57:54.909Z,204.40
2023-05-22T10:58:54.902Z,205.72
2023-05-22T10:59:54.940Z,208.90
2023-05-22T11:00:54.888Z,209.33
2023-05-22T11:01:54.930Z,209.64
2023-05-22T11:02:56.714Z,211.63
2023-05-22T11:03:55.871Z,211.61
2023-05-22T11:04:54.926Z,207.76
2023-05-22T11:05:54.943Z,206.63
2023-05-22T11:06:54.897Z,205.85
2023-05-22T11:07:54.903Z,206.16
2023-05-22T11:08:54.838Z,202.37
2023-05-22T11:09:54.874Z,199.83
2023-05-22T11:10:54.845Z,195.80
2023-05-22T11:11:54.826Z,194.18
2023-05-22T11:12:54.862Z,194.82
2023-05-22T11:13:54.855Z,193.33
2023-05-22T11:14:54.825Z,176.43
2023-05-22T11:15:54.821Z,176.94
2023-05-22T11:16:54.898Z,176.83
2023-05-22T11:17:54.901Z,172.96
2023-05-22T11:18:55.423Z,172.90
2023-05-22T11:19:54.802Z,170.39
2023-05-22T11:20:54.787Z,171.94
2023-05-22T11:21:54.838Z,168.23
2023-05-22T11:22:54.749Z,166.37
2023-05-22T11:23:54.738Z,168.46
2023-05-22T11:24:54.800Z,168.48
2023-05-22T11:25:54.733Z,158.66
2023-05-22T11:26:54.757Z,155.50
2023-05-22T11:27:54.810Z,158.47
2023-05-22T11:28:54.750Z,148.29
2023-05-22T11:29:54.754Z,154.10
2023-05-22T11:30:54.771Z,151.51
2023-05-22T11:31:54.698Z,138.48
2023-05-22T11:32:54.926Z,123.38
2023-05-22T11:33:54.881Z,117.48
2023-05-22T11:34:54.660Z,121.81
2023-05-22T11:35:54.670Z,121.46
2023-05-22T11:36:54.689Z,120.74
2023-05-22T11:37:54.762Z,124.44
2023-05-22T11:38:54.667Z,129.26
2023-05-22T11:39:54.741Z,131.17
2023-05-22T11:40:54.791Z,122.61
2023-05-22T11:41:54.868Z,129.39
2023-05-22T11:42:54.862Z,130.10
2023-05-22T11:43:54.916Z,131.34
2023-05-22T11:44:54.947Z,129.97
2023-05-22T11:45:55.102Z,127.12
2023-05-22T11:46:55.078Z,122.81
2023-05-22T11:47:55.112Z,117.07
2023-05-22T11:48:55.118Z,110.36
2023-05-22T11:49:55.164Z,87.66
2023-05-22T11:50:55.220Z,108.16
2023-05-22T11:51:55.250Z,105.93
2023-05-22T11:52:55.304Z,75.15
2023-05-22T11:53:55.432Z,72.60
2023-05-22T11:54:55.373Z,84.80
2023-05-22T11:55:55.420Z,77.95
2023-05-22T11:56:55.474Z,64.53
2023-05-22T11:57:55.530Z,67.92
2023-05-22T11:58:55.545Z,78.44
2023-05-22T11:59:55.663Z,83.85
2023-05-22T12:00:55.694Z,82.99
2023-05-22T12:01:55.709Z,81.04
2023-05-22T12:02:55.816Z,80.95
2023-05-22T12:03:56.059Z,75.07
2023-05-22T12:04:55.826Z,68.72
2023-05-22T12:05:55.876Z,63.94
2023-05-22T12:06:55.968Z,67.99
2023-05-22T12:07:56.388Z,62.53
2023-05-22T12:08:55.988Z,63.03
2023-05-22T12:09:56.122Z,64.07
2023-05-22T12:10:56.087Z,62.69
2023-05-22T12:11:56.152Z,46.14
2023-05-22T12:12:56.181Z,56.47
2023-05-22T12:13:56.214Z,61.67
2023-05-22T12:14:56.245Z,48.41
2023-05-22T12:15:56.299Z,45.51
2023-05-22T12:16:56.394Z,40.29
2023-05-22T12:17:56.551Z,46.35
2023-05-22T12:18:56.443Z,46.34
2023-05-22T12:19:56.493Z,47.01
2023-05-22T12:20:56.548Z,36.17
2023-05-22T12:21:56.614Z,33.32
2023-05-22T12:22:56.652Z,30.98
2023-05-22T12:23:56.702Z,27.93
2023-05-22T12:24:56.746Z,26.36
2023-05-22T12:25:56.841Z,25.53
2023-05-22T12:26:56.830Z,27.88
2023-05-22T12:27:56.848Z,29.12
2023-05-22T12:28:56.904Z,27.68
2023-05-22T12:29:56.957Z,27.87
2023-05-22T12:30:57.015Z,25.87